Time;durP1;ratioP1;P1;durP2;ratioP2;P2;SDS_P1;SDS_P2;PMS_P1;PMS_P2;Temp;Humidity;BMP_temperature;BMP_pressure;BME280_temperature;BME280_humidity;BME280_pressure;Samples;Min_cycle;Max_cycle;Signal;HPM_P1;HPM_P2
2022/01/30 00:00:17;;;;;;;15.90;4.53;;;5.90;99.90;;;5.82;64.74;100315.75;5030248;28;20206;-75
2022/01/30 00:02:47;;;;;;;18.35;4.93;;;5.80;99.90;;;5.73;65.71;100331.13;5030661;28;20193;-75
2022/01/30 00:05:16;;;;;;;18.35;6.20;;;5.70;99.90;;;5.67;66.09;100316.56;5030937;28;20193;-75
2022/01/30 00:07:45;;;;;;;25.00;6.13;;;5.70;99.90;;;5.62;66.13;100324.34;5035581;28;20185;-75
2022/01/30 00:10:18;;;;;;;11.70;4.30;;;5.60;99.90;;;5.60;66.31;100312.97;5028721;28;20193;-75
2022/01/30 00:12:50;;;;;;;18.98;5.05;;;5.60;99.90;;;5.55;66.27;100307.34;5036227;28;20188;-76
2022/01/30 00:15:28;;;;;;;17.10;5.05;;;5.50;99.90;;;5.59;66.96;100329.25;5036670;28;20185;-74
2022/01/30 00:18:10;;;;;;;16.85;4.65;;;5.60;99.90;;;5.58;66.62;100330.28;5037013;28;20292;-75
2022/01/30 00:20:46;;;;;;;18.60;5.88;;;5.50;99.90;;;5.63;66.50;100335.91;5038302;28;20703;-75
2022/01/30 00:23:20;;;;;;;19.17;4.63;;;5.60;99.90;;;5.72;66.60;100307.97;5038079;28;20180;-74
2022/01/30 00:25:52;;;;;;;16.90;3.60;;;5.70;99.90;;;5.80;66.00;100321.31;5034855;28;20218;-75
2022/01/30 00:28:24;;;;;;;12.35;4.07;;;5.70;99.90;;;5.83;65.57;100312.03;5035644;28;20202;-76
2022/01/30 00:30:55;;;;;;;25.13;5.82;;;5.70;99.90;;;5.98;64.92;100320.97;5034178;28;20208;-74
2022/01/30 00:33:26;;;;;;;19.90;4.50;;;5.90;99.90;;;6.05;64.33;100305.78;5035036;28;20656;-77
2022/01/30 00:35:54;;;;;;;15.48;5.93;;;6.00;99.90;;;6.09;64.65;100305.22;5034636;28;20180;-76
2022/01/30 00:38:24;;;;;;;14.23;5.10;;;6.00;99.90;;;6.16;63.39;100310.66;5035500;28;20218;-75
2022/01/30 00:40:53;;;;;;;22.05;5.05;;;6.10;99.90;;;6.18;63.45;100292.50;5050052;28;20178;-76
2022/01/30 00:43:23;;;;;;;10.88;4.30;;;6.10;99.90;;;6.21;63.31;100286.75;5034993;28;20180;-76
2022/01/30 00:45:52;;;;;;;22.77;4.80;;;6.10;99.90;;;6.21;62.83;100300.19;5033358;28;20244;-76
2022/01/30 00:48:25;;;;;;;15.85;3.28;;;6.20;99.90;;;6.30;62.56;100274.03;5034514;28;20710;-76
2022/01/30 00:50:55;;;;;;;10.98;4.45;;;6.20;99.90;;;6.30;62.17;100328.59;5034602;28;20285;-76
2022/01/30 00:53:24;;;;;;;13.60;4.63;;;6.20;99.90;;;6.31;62.38;100305.25;5033695;28;20197;-77
2022/01/30 00:55:52;;;;;;;23.08;5.25;;;6.20;99.90;;;6.20;63.22;100268.97;5033515;28;20190;-75
2022/01/30 00:58:21;;;;;;;17.15;4.20;;;6.20;99.90;;;6.13;64.35;100276.13;5034993;28;20205;-76
2022/01/30 01:00:50;;;;;;;14.40;4.43;;;6.10;99.90;;;6.10;64.41;100280.00;5033899;28;20204;-76
2022/01/30 01:03:19;;;;;;;10.73;3.90;;;6.10;99.90;;;6.06;64.82;100272.50;5033955;28;20603;-76
2022/01/30 01:05:51;;;;;;;13.98;3.55;;;6.00;99.90;;;5.98;65.07;100264.56;5033065;28;20189;-76
2022/01/30 01:08:28;;;;;;;18.77;4.40;;;6.00;99.90;;;6.00;65.05;100278.66;5033655;28;20228;-79
2022/01/30 01:11:11;;;;;;;19.65;3.83;;;5.90;99.90;;;6.02;64.66;100268.53;5034572;28;20623;-76
2022/01/30 01:14:05;;;;;;;12.55;3.60;;;6.00;99.90;;;6.10;64.20;100269.25;5033867;28;20721;-75
2022/01/30 01:24:54;;;;;;;12.07;4.15;;;6.10;99.90;;;6.29;62.18;100262.47;5034555;28;20196;-75
2022/01/30 01:27:24;;;;;;;21.95;5.68;;;6.20;99.90;;;6.33;61.94;100268.28;5033650;28;20200;-77
2022/01/30 01:29:53;;;;;;;18.88;3.72;;;6.20;99.90;;;6.37;61.26;100242.69;5034405;28;20202;-77
2022/01/30 01:32:21;;;;;;;14.63;3.70;;;6.30;99.90;;;6.43;60.88;100245.47;5035120;28;20260;-75
2022/01/30 01:34:50;;;;;;;20.83;5.65;;;6.40;99.90;;;6.43;61.30;100250.84;5034630;28;20272;-75
2022/01/30 01:37:23;;;;;;;20.45;5.13;;;6.30;99.90;;;6.48;60.88;100269.09;5033157;28;20636;-75
2022/01/30 01:39:55;;;;;;;11.85;3.72;;;6.40;99.90;;;6.48;60.87;100267.22;5033078;28;20217;-76
2022/01/30 01:42:30;;;;;;;21.70;3.70;;;6.40;99.90;;;6.50;60.57;100281.28;5032981;28;20185;-74
2022/01/30 01:45:00;;;;;;;23.20;7.43;;;6.40;99.90;;;6.49;60.89;100274.25;5033276;28;20647;-78
2022/01/30 01:47:32;;;;;;;19.50;4.97;;;6.40;99.90;;;6.53;60.75;100275.53;5034164;28;20177;-74
2022/01/30 01:50:01;;;;;;;22.25;5.20;;;6.40;99.90;;;6.48;60.74;100286.06;5033144;28;20197;-76
2022/01/30 01:52:31;;;;;;;24.20;6.15;;;6.40;99.90;;;6.53;60.77;100270.16;5032680;28;20539;-76
2022/01/30 01:55:01;;;;;;;24.95;7.07;;;6.40;99.90;;;6.51;60.60;100266.84;5032806;28;20197;-75
2022/01/30 01:57:31;;;;;;;19.33;3.97;;;6.40;99.90;;;6.46;61.32;100258.50;5032526;28;20196;-78
2022/01/30 02:00:26;;;;;;;19.88;4.43;;;6.40;99.90;;;6.42;61.70;100264.47;5032710;28;20220;-75
2022/01/30 02:02:55;;;;;;;17.10;4.25;;;6.40;99.90;;;6.34;63.04;100253.84;5034328;28;20272;-74
2022/01/30 02:05:26;;;;;;;10.05;4.00;;;6.30;99.90;;;6.11;64.99;100251.28;5036850;28;20257;-75
2022/01/30 02:08:25;;;;;;;7.55;3.20;;;6.20;99.90;;;5.92;66.25;100292.16;5048455;28;20209;-76
2022/01/30 02:10:59;;;;;;;17.05;6.45;;;5.90;99.90;;;5.82;66.75;100286.22;5056158;28;20162;-78
2022/01/30 02:14:00;;;;;;;15.30;3.97;;;5.80;99.90;;;5.81;66.93;100285.38;5054385;28;20195;-80
2022/01/30 02:25:20;;;;;;;22.27;5.32;;;5.40;99.90;;;5.45;69.54;100265.69;5032695;28;20227;-75
2022/01/30 02:27:55;;;;;;;16.50;3.65;;;5.40;99.90;;;5.56;68.21;100260.69;5032494;28;20192;-74
2022/01/30 02:30:26;;;;;;;22.40;3.53;;;5.50;99.90;;;5.73;66.11;100245.22;5033361;28;20212;-76
2022/01/30 02:32:56;;;;;;;17.85;3.78;;;5.60;99.90;;;5.89;65.34;100261.16;5032526;28;20194;-75
2022/01/30 02:35:28;;;;;;;16.25;4.68;;;5.80;99.90;;;6.06;63.95;100272.50;5032825;28;20193;-75
2022/01/30 02:38:00;;;;;;;16.85;3.38;;;5.90;99.90;;;6.15;63.45;100260.63;5032554;28;20213;-74
2022/01/30 02:40:32;;;;;;;14.30;3.67;;;6.00;99.90;;;6.19;62.75;100253.88;5034143;28;20209;-74
2022/01/30 02:43:01;;;;;;;13.63;5.30;;;6.10;99.90;;;6.22;62.84;100283.06;5033400;28;20173;-74
2022/01/30 02:45:32;;;;;;;16.55;3.90;;;6.10;99.90;;;6.25;62.69;100271.91;5032644;28;20247;-75
2022/01/30 02:48:14;;;;;;;12.80;2.97;;;6.20;99.90;;;6.27;62.80;100282.47;5032179;28;20218;-74
2022/01/30 02:50:54;;;;;;;13.13;3.40;;;6.20;99.90;;;6.30;62.21;100279.41;5032033;28;20166;-74
2022/01/30 02:53:30;;;;;;;17.02;4.35;;;6.20;99.90;;;6.26;62.59;100265.53;5033680;28;20177;-74
2022/01/30 02:55:59;;;;;;;10.60;2.78;;;6.20;99.90;;;6.24;62.75;100242.56;5032725;28;20621;-76
2022/01/30 02:58:30;;;;;;;17.02;3.78;;;6.20;99.90;;;6.18;62.74;100233.41;5031956;28;20213;-74
2022/01/30 03:00:59;;;;;;;9.50;3.75;;;6.10;99.90;;;6.22;62.40;100248.13;5031990;28;20249;-74
2022/01/30 03:03:27;;;;;;;11.52;3.70;;;6.10;99.90;;;6.26;61.74;100257.47;5032227;28;20676;-74
2022/01/30 03:05:56;;;;;;;9.45;3.25;;;6.20;99.90;;;6.31;62.02;100262.25;5034100;28;20182;-75
2022/01/30 03:08:26;;;;;;;14.15;3.35;;;6.20;99.90;;;6.24;62.20;100254.16;5032084;28;20304;-75
2022/01/30 03:10:54;;;;;;;6.07;2.80;;;6.20;99.90;;;6.24;62.09;100270.28;5033003;28;20194;-73
2022/01/30 03:13:23;;;;;;;10.73;3.80;;;6.20;99.90;;;6.24;62.12;100281.03;5031753;28;20731;-75
2022/01/30 03:15:51;;;;;;;5.38;3.38;;;6.20;99.90;;;6.27;61.74;100280.63;5031619;28;20193;-74
2022/01/30 03:18:19;;;;;;;15.75;4.20;;;6.20;99.90;;;6.30;61.41;100284.78;5031529;28;20223;-73
2022/01/30 03:20:48;;;;;;;15.32;3.83;;;6.20;99.90;;;6.28;61.51;100298.44;5029917;28;20426;-75
2022/01/30 03:23:17;;;;;;;9.45;2.65;;;6.20;99.90;;;6.22;61.13;100303.72;5030843;28;20205;-73
2022/01/30 03:25:53;;;;;;;11.57;3.85;;;6.20;99.90;;;6.18;61.67;100289.81;5031212;28;20288;-74
2022/01/30 03:28:28;;;;;;;13.88;3.55;;;6.10;99.90;;;6.11;61.85;100275.47;5032008;28;20212;-74
2022/01/30 03:31:08;;;;;;;15.43;3.40;;;6.10;99.90;;;6.08;62.30;100275.84;5032327;28;20200;-74
2022/01/30 03:33:41;;;;;;;6.63;2.22;;;6.00;99.90;;;6.03;62.81;100252.25;5033711;28;20239;-72
2022/01/30 03:36:10;;;;;;;14.20;3.88;;;6.00;99.90;;;5.99;63.12;100264.38;5033015;28;20688;-74
2022/01/30 03:38:41;;;;;;;7.07;1.75;;;5.90;99.90;;;5.95;62.74;100243.47;5031694;28;20256;-72
2022/01/30 03:41:11;;;;;;;17.65;4.22;;;5.90;99.90;;;5.94;62.68;100253.38;5030230;28;20209;-74
2022/01/30 03:43:40;;;;;;;11.52;3.70;;;5.90;99.90;;;5.97;62.10;100262.91;5031188;28;20212;-73
2022/01/30 03:46:09;;;;;;;17.25;5.22;;;5.90;99.90;;;6.02;62.32;100261.31;5030986;28;20200;-75
2022/01/30 03:48:38;;;;;;;21.13;4.70;;;5.90;99.90;;;6.01;63.26;100250.75;5030869;28;20715;-74
2022/01/30 03:51:15;;;;;;;13.55;2.45;;;5.90;99.90;;;5.98;63.01;100232.34;5033141;28;20693;-74
2022/01/30 03:53:45;;;;;;;13.85;3.38;;;5.90;99.90;;;5.97;62.48;100252.16;5031460;28;20213;-74
2022/01/30 03:56:14;;;;;;;10.40;4.15;;;5.90;99.90;;;5.98;62.37;100243.09;5031396;28;20221;-72
2022/01/30 03:58:42;;;;;;;16.30;4.68;;;5.90;99.90;;;5.99;62.70;100234.00;5031137;28;20217;-73
2022/01/30 04:01:15;;;;;;;13.48;4.88;;;5.90;99.90;;;5.93;62.62;100272.34;5031186;28;20267;-73
2022/01/30 04:03:44;;;;;;;13.60;3.55;;;5.90;99.90;;;5.92;62.86;100286.78;5031182;28;20197;-73
2022/01/30 04:06:13;;;;;;;16.75;4.15;;;5.80;99.90;;;5.81;63.32;100279.19;5032537;28;20182;-71
2022/01/30 04:08:43;;;;;;;9.43;2.65;;;5.80;99.90;;;5.73;64.34;100263.16;5031245;28;20615;-74
2022/01/30 04:11:20;;;;;;;12.20;2.95;;;5.70;99.90;;;5.61;65.18;100273.56;5031205;28;20185;-73
2022/01/30 04:13:59;;;;;;;18.02;3.85;;;5.60;99.90;;;5.60;65.79;100294.19;5031524;28;20593;-74
2022/01/30 04:16:43;;;;;;;14.70;3.83;;;5.60;99.90;;;5.45;67.61;100301.41;5031359;28;20205;-74
2022/01/30 04:19:39;;;;;;;7.07;3.17;;;5.40;99.90;;;5.26;68.86;100288.50;5031367;28;20581;-73
2022/01/30 04:22:30;;;;;;;5.82;2.30;;;5.30;99.90;;;5.20;69.01;100268.59;5011211;28;20239;-73
2022/01/30 04:25:24;;;;;;;11.02;4.22;;;5.20;99.90;;;5.19;69.10;100276.81;5031071;28;20280;-73
2022/01/30 04:28:13;;;;;;;9.40;3.05;;;5.20;99.90;;;5.29;66.77;100258.63;5032321;28;20233;-73
2022/01/30 04:31:02;;;;;;;16.38;3.80;;;5.20;99.90;;;5.35;67.00;100257.91;5031312;28;20571;-73
2022/01/30 04:33:48;;;;;;;8.40;3.30;;;5.30;99.90;;;5.40;67.06;100254.66;5030737;28;20197;-72
2022/01/30 04:36:35;;;;;;;15.43;3.53;;;5.30;99.90;;;5.44;67.37;100246.06;5032176;28;20632;-73
2022/01/30 04:40:05;;;;;;;12.35;3.97;;;5.40;99.90;;;5.39;67.94;100247.63;5031757;28;20217;-73
2022/01/30 04:52:48;;;;;;;15.82;4.47;;;5.40;99.90;;;5.49;66.48;100235.59;5032036;28;20264;-74
2022/01/30 04:59:16;;;;;;;14.68;2.90;;;5.50;99.90;;;5.57;65.22;100273.06;5035831;28;20273;-75
2022/01/30 05:02:01;;;;;;;9.32;3.00;;;5.50;99.90;;;5.61;65.19;100278.94;5034557;28;20296;-73
2022/01/30 05:04:50;;;;;;;20.90;4.10;;;5.50;99.90;;;5.54;65.29;100276.13;5034255;28;20225;-73
2022/01/30 05:07:46;;;;;;;15.63;5.47;;;5.50;99.90;;;5.56;65.44;100290.22;4997852;28;20208;-72
2022/01/30 05:10:23;;;;;;;8.85;2.13;;;5.50;99.90;;;5.49;66.52;100302.69;5035497;28;20538;-73
2022/01/30 05:13:01;;;;;;;13.80;3.65;;;5.50;99.90;;;5.46;66.73;100319.16;5034191;28;20239;-73
2022/01/30 05:15:53;;;;;;;7.90;3.90;;;5.40;99.90;;;5.48;67.03;100314.44;5036772;23;20329;-72
2022/01/30 05:18:42;;;;;;;8.43;3.03;;;5.40;99.90;;;5.43;67.00;100330.25;5031416;28;20220;-72
2022/01/30 05:21:14;;;;;;;9.35;2.85;;;5.40;99.90;;;5.42;66.67;100328.56;5034887;28;20316;-73
2022/01/30 05:23:52;;;;;;;12.07;3.95;;;5.40;99.90;;;5.41;66.52;100321.56;5033283;28;20193;-73
2022/01/30 05:26:27;;;;;;;16.52;5.72;;;5.40;99.90;;;5.48;66.46;100306.38;5033578;28;20189;-72
2022/01/30 05:29:16;;;;;;;9.70;3.35;;;5.40;99.90;;;5.51;65.53;100327.50;5049616;22;20739;-72
2022/01/30 05:31:56;;;;;;;13.93;2.60;;;5.40;99.90;;;5.53;64.98;100305.84;5034026;28;20181;-72
2022/01/30 05:34:43;;;;;;;23.38;3.70;;;5.50;99.90;;;5.63;63.86;100328.72;5034485;28;20228;-75
2022/01/30 05:37:24;;;;;;;12.10;3.88;;;5.50;99.90;;;5.65;63.52;100325.84;5033840;28;20272;-72
2022/01/30 05:40:12;;;;;;;13.95;3.58;;;5.60;99.90;;;5.72;62.73;100328.59;5015501;28;20333;-72
2022/01/30 05:42:44;;;;;;;18.15;2.80;;;5.60;99.90;;;5.79;62.31;100362.59;5015268;28;20561;-70
2022/01/30 05:45:28;;;;;;;20.88;4.57;;;5.70;99.90;;;5.79;62.21;100348.34;5030581;28;20178;-73
2022/01/30 05:48:18;;;;;;;11.05;3.80;;;5.70;99.90;;;5.77;62.02;100342.31;5015199;28;20221;-74
2022/01/30 05:51:00;;;;;;;12.00;2.75;;;5.70;99.90;;;5.80;61.81;100340.13;5013493;28;20189;-72
2022/01/30 05:53:45;;;;;;;13.57;3.50;;;5.70;99.90;;;5.79;62.44;100334.91;5013823;28;20310;-72
2022/01/30 05:56:17;;;;;;;11.52;3.28;;;5.70;99.90;;;5.69;61.59;100314.56;5013593;28;20273;-72
2022/01/30 05:59:00;;;;;;;24.77;3.00;;;5.70;99.90;;;5.72;62.52;100317.88;5013764;28;20717;-72
2022/01/30 06:01:29;;;;;;;14.15;3.42;;;5.70;99.90;;;5.67;62.04;100297.78;5015281;28;20213;-72
2022/01/30 06:04:12;;;;;;;13.50;3.67;;;5.60;99.90;;;5.72;61.78;100307.13;5012342;28;20190;-72
2022/01/30 06:06:49;;;;;;;14.50;3.95;;;5.70;99.90;;;5.74;61.49;100321.22;5013760;28;20560;-71
2022/01/30 06:09:19;;;;;;;19.05;5.00;;;5.70;99.90;;;5.83;61.17;100314.72;5013218;28;20217;-72
2022/01/30 06:11:52;;;;;;;11.25;3.78;;;5.70;99.90;;;5.86;61.21;100315.19;5013466;28;20208;-73
2022/01/30 06:14:23;;;;;;;9.55;3.65;;;5.80;99.90;;;5.88;60.20;100323.09;5013272;28;20194;-72
2022/01/30 06:17:06;;;;;;;14.88;3.55;;;5.80;99.90;;;5.88;59.99;100321.25;5013260;28;20276;-72
2022/01/30 06:19:53;;;;;;;12.73;3.20;;;5.80;99.90;;;5.90;60.58;100324.59;5014447;28;20309;-72
2022/01/30 06:23:00;;;;;;;14.10;3.80;;;5.80;99.90;;;5.91;60.33;100338.81;5014362;28;20582;-74
2022/01/30 06:25:49;;;;;;;12.60;4.20;;;5.80;99.90;;;5.87;60.89;100326.78;5014389;28;20189;-73
2022/01/30 06:28:17;;;;;;;13.15;4.07;;;5.80;99.90;;;5.86;60.87;100346.56;5014443;28;20284;-73
2022/01/30 06:31:04;;;;;;;16.25;5.30;;;5.80;99.90;;;5.83;61.90;100342.41;5014386;28;20197;-73
2022/01/30 06:33:43;;;;;;;5.43;3.10;;;5.80;99.90;;;5.80;61.65;100356.22;4995435;28;20197;-72
2022/01/30 06:36:30;;;;;;;23.05;4.05;;;5.70;99.90;;;5.78;61.82;100317.97;5011266;28;20732;-73
2022/01/30 06:39:18;;;;;;;9.52;3.38;;;5.70;99.90;;;5.82;61.42;100313.06;5014892;28;20601;-72
2022/01/30 06:42:10;;;;;;;8.73;2.95;;;5.70;99.90;;;5.82;61.33;100310.38;5010988;28;20225;-72
2022/01/30 06:44:57;;;;;;;11.60;2.80;;;5.70;99.90;;;5.81;60.95;100309.53;5014009;28;20181;-72
2022/01/30 06:47:44;;;;;;;10.90;4.57;;;5.70;99.90;;;5.85;61.01;100324.28;5014302;28;20312;-72
2022/01/30 06:50:31;;;;;;;17.45;3.97;;;5.80;99.90;;;5.85;60.21;100302.81;5013783;28;20265;-73
2022/01/30 06:53:35;;;;;;;12.40;4.35;;;5.80;99.90;;;5.92;60.12;100321.69;5014025;28;20196;-73
2022/01/30 06:56:26;;;;;;;16.40;4.15;;;5.80;99.90;;;5.95;59.86;100326.72;5013862;28;20623;-74
2022/01/30 06:59:14;;;;;;;13.18;3.33;;;5.90;99.90;;;5.96;59.63;100345.31;5013936;28;20268;-73
2022/01/30 07:02:01;;;;;;;20.52;5.35;;;5.90;99.90;;;6.03;59.30;100329.31;5013729;28;20287;-73
2022/01/30 07:04:48;;;;;;;9.63;4.63;;;5.90;99.90;;;6.05;58.88;100329.97;5013816;28;20170;-73
2022/01/30 07:07:38;;;;;;;19.10;3.78;;;6.00;99.90;;;6.14;58.84;100369.13;5012672;28;20209;-73
2022/01/30 07:10:07;;;;;;;13.30;4.13;;;6.00;99.90;;;6.18;58.51;100389.22;5013955;28;20182;-73
2022/01/30 07:12:37;;;;;;;9.80;2.63;;;6.00;99.90;;;6.16;58.34;100363.56;5013803;28;20204;-72
2022/01/30 07:15:06;;;;;;;16.35;4.22;;;6.10;99.90;;;6.21;58.02;100388.84;5013525;28;20651;-73
2022/01/30 07:17:35;;;;;;;11.32;3.65;;;6.10;99.90;;;6.26;57.56;100375.69;5013659;28;20224;-72
2022/01/30 07:20:04;;;;;;;10.25;2.65;;;6.20;99.90;;;6.28;57.58;100397.84;5013273;28;20210;-72
2022/01/30 07:22:33;;;;;;;19.05;3.35;;;6.20;99.90;;;6.28;58.09;100413.97;5013550;28;20342;-74
2022/01/30 07:25:07;;;;;;;8.60;2.65;;;6.20;99.90;;;6.33;57.77;100419.63;5013685;28;20178;-71
2022/01/30 07:27:39;;;;;;;15.43;5.07;;;6.20;99.90;;;6.27;57.58;100447.22;5013941;28;20184;-72
2022/01/30 07:30:10;;;;;;;10.30;3.40;;;6.20;99.90;;;6.31;57.63;100399.31;5014576;28;20194;-74
2022/01/30 07:32:39;;;;;;;12.88;3.30;;;6.20;99.90;;;6.27;57.67;100420.34;5014255;28;20214;-72
2022/01/30 07:35:08;;;;;;;12.45;4.65;;;6.20;99.90;;;6.30;57.59;100411.91;5013864;28;20194;-73
2022/01/30 07:37:37;;;;;;;10.40;4.70;;;6.20;99.90;;;6.27;57.85;100425.72;5013712;28;20191;-74
2022/01/30 07:40:08;;;;;;;8.55;4.03;;;6.20;99.90;;;6.29;57.78;100442.50;5013910;28;20186;-73
2022/01/30 07:42:37;;;;;;;23.35;5.30;;;6.20;99.90;;;6.28;57.44;100443.53;5013511;28;20197;-73
2022/01/30 07:45:07;;;;;;;23.92;4.47;;;6.20;99.90;;;6.29;57.56;100455.13;5012126;28;20186;-72
2022/01/30 07:47:35;;;;;;;6.25;2.17;;;6.20;99.90;;;6.31;57.31;100485.31;5013944;28;20181;-73
2022/01/30 07:50:04;;;;;;;17.80;3.75;;;6.30;99.90;;;6.33;57.74;100515.53;5014161;28;20232;-73
2022/01/30 07:52:33;;;;;;;22.95;5.85;;;6.20;99.90;;;6.34;57.71;100503.75;5013419;28;20205;-74
2022/01/30 07:55:05;;;;;;;22.95;5.43;;;6.20;99.90;;;6.31;57.97;100494.19;5008289;28;20199;-73
2022/01/30 07:57:33;;;;;;;16.77;5.07;;;6.20;99.90;;;6.32;57.89;100503.94;5005667;28;20554;-72
2022/01/30 08:00:29;;;;;;;14.90;3.67;;;6.20;99.90;;;6.32;57.27;100509.31;4993399;28;20206;-73
2022/01/30 08:02:57;;;;;;;10.82;2.95;;;6.30;99.90;;;6.34;57.81;100520.69;4993547;28;20201;-73
2022/01/30 08:05:26;;;;;;;12.32;5.70;;;6.30;99.90;;;6.34;57.88;100506.44;4993419;28;20273;-73
2022/01/30 08:07:57;;;;;;;9.00;3.70;;;6.30;99.90;;;6.30;57.44;100530.16;4992045;28;20186;-73
2022/01/30 08:10:25;;;;;;;6.18;2.75;;;6.20;99.90;;;6.35;57.26;100529.59;4994261;28;20244;-73
2022/01/30 08:12:53;;;;;;;13.68;3.63;;;6.30;99.90;;;6.36;57.27;100542.84;4993905;28;20225;-73
2022/01/30 08:15:22;;;;;;;7.13;2.60;;;6.30;99.90;;;6.39;57.29;100563.19;4993863;28;20501;-72
2022/01/30 08:17:53;;;;;;;17.00;4.22;;;6.30;99.90;;;6.38;57.18;100561.50;4994024;28;20190;-74
2022/01/30 08:20:24;;;;;;;10.82;2.22;;;6.30;99.90;;;6.38;57.40;100575.78;4993614;28;20183;-72
2022/01/30 08:22:55;;;;;;;11.20;2.97;;;6.30;99.90;;;6.38;57.29;100573.09;4993812;28;20213;-73
2022/01/30 08:25:25;;;;;;;18.35;3.58;;;6.30;99.90;;;6.37;57.39;100557.97;4993854;28;20191;-74
2022/01/30 08:27:55;;;;;;;12.07;3.45;;;6.30;99.90;;;6.42;57.05;100569.00;4995164;28;20182;-73
2022/01/30 08:30:27;;;;;;;14.38;3.05;;;6.30;99.90;;;6.42;57.17;100590.50;4997520;28;20183;-73
2022/01/30 08:33:04;;;;;;;28.73;6.40;;;6.30;99.90;;;6.43;57.03;100580.59;4997909;28;20175;-73
2022/01/30 08:35:34;;;;;;;8.77;2.72;;;6.40;99.90;;;6.41;57.42;100599.59;4997510;28;20241;-73
2022/01/30 08:38:02;;;;;;;11.63;3.50;;;6.30;99.90;;;6.44;57.04;100587.63;4997353;28;20234;-73
2022/01/30 08:40:31;;;;;;;18.90;3.17;;;6.30;99.90;;;6.41;57.11;100593.38;5011209;28;20186;-73
2022/01/30 08:43:00;;;;;;;16.25;3.80;;;6.40;99.90;;;6.41;57.31;100621.09;5016606;28;20217;-74
2022/01/30 08:45:28;;;;;;;11.88;4.57;;;6.30;99.90;;;6.44;57.16;100588.47;5016612;28;20200;-73
2022/01/30 08:47:56;;;;;;;17.25;4.13;;;6.30;99.90;;;6.44;56.93;100607.28;5016645;28;20186;-73
2022/01/30 08:50:27;;;;;;;9.55;3.85;;;6.40;99.90;;;6.47;56.42;100603.41;5016492;28;20175;-73
2022/01/30 08:52:55;;;;;;;17.23;4.38;;;6.40;99.90;;;6.51;56.83;100585.88;5016473;28;20294;-74
2022/01/30 08:55:25;;;;;;;12.65;2.75;;;6.40;99.90;;;6.51;56.56;100594.78;5016731;28;20194;-73
2022/01/30 08:57:57;;;;;;;21.83;5.28;;;6.40;99.90;;;6.57;56.40;100619.28;5016288;28;20175;-72
2022/01/30 09:00:28;;;;;;;20.55;4.18;;;6.50;99.90;;;6.53;56.62;100603.47;5016142;28;20178;-74
2022/01/30 09:02:59;;;;;;;22.15;4.90;;;6.50;99.90;;;6.58;56.64;100620.94;5016021;28;20305;-74
2022/01/30 09:05:30;;;;;;;16.35;5.43;;;6.50;99.90;;;6.59;56.20;100644.09;5016673;28;20186;-72
2022/01/30 09:07:58;;;;;;;11.10;4.50;;;6.50;99.90;;;6.66;56.17;100628.91;5016345;28;20178;-73
2022/01/30 09:10:34;;;;;;;18.40;5.90;;;6.60;99.90;;;6.76;56.55;100626.81;5015766;28;20178;-73
2022/01/30 09:13:03;;;;;;;10.98;3.00;;;6.60;99.90;;;6.70;56.45;100657.94;5016112;28;20210;-73
2022/01/30 09:15:37;;;;;;;17.25;4.55;;;6.60;99.90;;;6.67;56.54;100630.59;5015377;28;20174;-74
2022/01/30 09:18:08;;;;;;;13.40;3.47;;;6.60;99.90;;;6.76;56.30;100635.72;5015761;28;20219;-73
2022/01/30 09:20:41;;;;;;;13.48;3.13;;;6.70;99.90;;;6.75;56.37;100638.56;5016778;28;20559;-74
2022/01/30 09:23:11;;;;;;;14.80;5.03;;;6.70;99.90;;;6.78;56.55;100632.81;5016193;28;20202;-73
2022/01/30 09:25:46;;;;;;;23.30;4.53;;;6.70;99.90;;;6.74;56.45;100639.59;5016094;28;20550;-73
2022/01/30 09:28:15;;;;;;;11.45;4.40;;;6.70;99.90;;;6.78;56.20;100655.16;5016265;28;20813;-73
2022/01/30 09:30:45;;;;;;;6.18;2.88;;;6.70;99.90;;;6.82;55.92;100669.94;5015840;28;20529;-72
2022/01/30 09:33:13;;;;;;;10.25;3.20;;;6.80;99.90;;;6.83;56.18;100668.91;5016179;28;20301;-74
2022/01/30 09:35:49;;;;;;;16.77;4.28;;;6.70;99.90;;;6.74;56.08;100682.63;5015968;28;20216;-74
2022/01/30 09:38:17;;;;;;;15.52;4.13;;;6.70;99.90;;;6.88;56.36;100682.63;5016051;28;20240;-73
2022/01/30 09:40:46;;;;;;;18.05;6.07;;;6.70;99.90;;;6.86;55.73;100695.47;5016138;28;20555;-74
2022/01/30 09:43:15;;;;;;;25.25;5.60;;;6.80;99.90;;;6.84;56.03;100707.41;5015403;28;20285;-75
2022/01/30 09:45:45;;;;;;;11.93;4.05;;;6.80;99.90;;;6.82;55.75;100714.84;5015638;28;20215;-73
2022/01/30 09:48:14;;;;;;;9.85;2.88;;;6.80;99.90;;;6.78;55.52;100724.25;5015276;28;20324;-71
2022/01/30 09:50:48;;;;;;;8.85;2.85;;;6.70;99.90;;;6.73;55.64;100719.44;4996425;28;20210;-73
2022/01/30 09:53:18;;;;;;;12.20;4.38;;;6.60;99.90;;;6.74;56.00;100726.47;4995097;28;20191;-72
2022/01/30 09:55:47;;;;;;;15.57;3.47;;;6.70;99.90;;;6.77;55.47;100744.13;4995825;28;20206;-73
2022/01/30 09:58:15;;;;;;;20.58;3.85;;;6.70;99.90;;;6.72;55.76;100733.06;5003422;28;20207;-74
2022/01/30 10:00:54;;;;;;;14.43;3.50;;;6.70;99.90;;;6.74;55.21;100749.84;4996230;28;20206;-73
2022/01/30 10:03:26;;;;;;;20.92;3.67;;;6.60;99.90;;;6.81;55.57;100764.25;5009640;28;20202;-72
2022/01/30 10:06:13;;;;;;;22.23;4.80;;;6.70;99.90;;;6.89;55.59;100758.81;5015249;28;20686;-73
2022/01/30 10:08:44;;;;;;;16.83;5.15;;;6.80;99.90;;;6.75;55.32;100748.84;5015589;28;20578;-73
2022/01/30 10:11:29;;;;;;;28.13;4.82;;;6.70;99.90;;;6.73;55.33;100764.34;5015242;28;20210;-73
2022/01/30 10:14:10;;;;;;;12.93;4.22;;;6.70;99.90;;;6.76;55.24;100774.72;5018749;28;20174;-71
2022/01/30 10:16:44;;;;;;;57.25;5.90;;;6.70;99.90;;;6.84;55.50;100778.19;5017534;28;20174;-74
2022/01/30 10:19:17;;;;;;;8.50;3.72;;;6.80;99.90;;;6.81;55.30;100788.47;5015182;28;20210;-73
2022/01/30 10:21:49;;;;;;;14.43;3.55;;;6.80;99.90;;;6.80;55.47;100786.78;5015441;28;20174;-74
2022/01/30 10:24:26;;;;;;;14.35;4.38;;;6.70;99.90;;;6.78;55.35;100786.94;5015543;28;20198;-75
2022/01/30 10:26:59;;;;;;;14.30;4.28;;;6.70;99.90;;;6.85;55.77;100787.09;5014317;28;20197;-73
2022/01/30 10:29:32;;;;;;;18.85;4.45;;;6.70;99.90;;;6.96;55.86;100802.81;5015258;28;20225;-74
2022/01/30 10:32:34;;;;;;;14.32;5.38;;;6.80;99.90;;;6.84;55.76;100809.59;5014917;28;20586;-73
2022/01/30 10:35:09;;;;;;;11.82;4.45;;;6.80;99.90;;;6.95;55.74;100812.72;5013536;28;20201;-74
2022/01/30 10:37:40;;;;;;;28.02;5.05;;;6.80;99.90;;;6.94;55.34;100812.91;5015332;28;20546;-74
2022/01/30 10:40:16;;;;;;;19.08;7.50;;;6.80;99.90;;;6.94;55.54;100820.97;5015587;28;20285;-73
2022/01/30 10:42:48;;;;;;;18.10;5.03;;;6.90;99.90;;;6.88;55.45;100819.00;5014547;28;20225;-72
2022/01/30 10:45:31;;;;;;;13.32;4.28;;;6.80;99.90;;;6.86;55.81;100819.19;5011272;28;20229;-74
2022/01/30 10:48:11;;;;;;;15.05;5.15;;;6.80;99.90;;;6.95;55.30;100841.47;5016502;28;20202;-73
2022/01/30 10:50:42;;;;;;;26.80;5.00;;;6.90;99.90;;;6.95;55.37;100822.66;5014038;28;20269;-73
2022/01/30 10:53:21;;;;;;;15.05;5.38;;;6.90;99.90;;;6.91;55.13;100840.16;5014319;28;20182;-73
2022/01/30 10:55:58;;;;;;;13.25;4.60;;;6.80;99.90;;;6.85;55.07;100846.25;5013076;28;20178;-74
2022/01/30 10:58:26;;;;;;;19.30;5.72;;;6.80;99.90;;;6.86;55.10;100851.47;5003481;28;20526;-74
2022/01/30 11:00:56;;;;;;;28.73;5.07;;;6.70;99.90;;;6.83;55.35;100853.66;5008530;28;20187;-73
2022/01/30 11:03:44;;;;;;;18.40;4.03;;;6.70;99.90;;;6.84;54.94;100853.50;5000920;28;20186;-73
2022/01/30 11:06:15;;;;;;;28.75;7.95;;;6.80;99.90;;;6.74;55.02;100871.72;5009020;28;20183;-73
2022/01/30 11:08:47;;;;;;;15.93;5.88;;;6.70;99.90;;;6.82;54.98;100882.44;5009906;28;20222;-75
2022/01/30 11:11:28;;;;;;;27.58;5.93;;;6.70;99.90;;;6.85;55.37;100883.91;5013535;28;20170;-75
2022/01/30 11:14:13;;;;;;;18.67;4.80;;;6.70;99.90;;;6.85;55.24;100889.28;5012963;28;20273;-75
2022/01/30 11:17:04;;;;;;;11.27;5.15;;;6.80;99.90;;;6.85;55.08;100889.28;5011899;28;20284;-74
2022/01/30 11:19:35;;;;;;;22.23;8.05;;;6.80;99.90;;;6.99;55.02;100889.38;5013433;28;20248;-75
2022/01/30 11:22:08;;;;;;;12.10;4.85;;;6.80;99.90;;;6.94;54.96;100901.69;5013975;28;20249;-75
2022/01/30 11:24:49;;;;;;;17.35;5.57;;;6.90;99.90;;;6.91;54.72;100907.44;5013189;28;20256;-72